Concepcion del Uruguay, Argentina
Current Conditions -  °F | °C
As of 11:00 AM on Friday 28 Nov 2014 (Local Time) from SUSO Reporting Station
Scattered Clouds Scattered Clouds  
Wind Chill: 81°   Ceiling: Unl
Heat Index: 82°   Visibility: 6mi
Dew Point: 63°   Wind: 12mph
Humidity: 54%   Direction: 60°ENE
Pressure: 29.97"   Gusts: NA
Location:  32.58°S, 58.58°W
Report Text: SUSO 281400Z 06010KT 9999 SCT020 SCT200 27/17 Q1015
Loading
Personal Weather Stations






























Interactive Weather Map New forecast layout! Learn more

10-Day Weather Forecast

Advertisements
Track Severe Weather on mobile